This is the latest recevied weather packets stored in our database for station/object W2EH. If no packets are shown the sender has not sent any weather packets the latest 10 day(s).
| Time | Temp. | Humidity | Pressure | Rain* | Wind** | Luminosity | Snow |
|---|---|---|---|---|---|---|---|
| 1777141423 | 29.44° C | 63% | 1006.5 hPa | 0 mm | - | 246 W/m² | - |
| 1777141119 | 29.44° C | 63% | 1006.5 hPa | 0 mm | - | 321 W/m² | - |
| 1777140817 | 28.89° C | 65% | 1006.5 hPa | 0 mm | - | 714 W/m² | - |
| 1777140513 | 28.89° C | 64% | 1006.5 hPa | 0 mm | - | 628 W/m² | - |
| 1777140212 | 29.44° C | 63% | 1006.8 hPa | 0 mm | - | 194 W/m² | - |
| 1777139908 | 30° C | 62% | 1006.9 hPa | 0 mm | - | 250 W/m² | - |
| 1777139606 | 29.44° C | 63% | 1006.5 hPa | 0 mm | - | 857 W/m² | - |
| 1777139305 | 29.44° C | 64% | 1006.4 hPa | 0 mm | - | 208 W/m² | - |
| 1777139002 | 29.44° C | 65% | 1007 hPa | 0 mm | - | 220 W/m² | - |
| 1777138699 | 28.89° C | 63% | 1007 hPa | 0 mm | - | 608 W/m² | - |
| 1777138394 | 28.89° C | 64% | 1007.1 hPa | 0 mm | - | 268 W/m² | - |
| 1777138090 | 28.89° C | 65% | 1007.1 hPa | 0 mm | - | 255 W/m² | - |
| 1777137787 | 28.89° C | 64% | 1007.3 hPa | 0 mm | - | 175 W/m² | - |
| 1777137483 | 28.89° C | 66% | 1007.4 hPa | 0 mm | - | 179 W/m² | - |
| 1777137180 | 28.33° C | 67% | 1007.4 hPa | 0 mm | - | 181 W/m² | - |
| 1777136877 | 28.33° C | 68% | 1007.4 hPa | 0 mm | - | 230 W/m² | - |
| 1777136573 | 27.78° C | 69% | 1007.6 hPa | 0 mm | - | 197 W/m² | - |
| 1777136272 | 27.78° C | 70% | 1007.5 hPa | 0 mm | - | 502 W/m² | - |
| 1777135969 | 27.78° C | 69% | 1007.7 hPa | 0 mm | - | 164 W/m² | - |
| 1777135669 | 27.78° C | 69% | 1007.7 hPa | 0 mm | - | 233 W/m² | - |
| 1777135366 | 27.78° C | 69% | 1007.7 hPa | 0 mm | - | 203 W/m² | - |
| 1777135062 | 28.33° C | 67% | 1007.6 hPa | 0 mm | - | 277 W/m² | - |
| 1777134760 | 28.33° C | 66% | 1007.5 hPa | 0 mm | - | 202 W/m² | - |
| 1777134455 | 27.78° C | 71% | 1007.5 hPa | 0 mm | - | 206 W/m² | - |
| 1777134152 | 27.78° C | 71% | 1007.7 hPa | 0 mm | - | 219 W/m² | - |
* Rain latest hour (hover to see other rain measurements)
** Current wind speed in m/s (hover to see current wind gust speed)